Time;durP1;ratioP1;P1;durP2;ratioP2;P2;SDS_P1;SDS_P2;PMS_P1;PMS_P2;Temp;Humidity;BMP_temperature;BMP_pressure;BME280_temperature;BME280_humidity;BME280_pressure;Samples;Min_cycle;Max_cycle;Signal;HPM_P1;HPM_P2
2022/12/23 15:32:58;;;;;;;7.93;2.90;;;12.30;1.00;;;;;;5047207;28;20590;-66
2022/12/23 15:36:30;;;;;;;7.63;3.03;;;12.70;1.00;;;;;;5054353;27;20607;-69
2022/12/23 15:38:59;;;;;;;8.00;2.37;;;13.00;1.00;;;;;;5043153;28;20448;-66
2022/12/23 15:41:25;;;;;;;3.80;2.00;;;12.90;1.00;;;;;;5049933;28;20448;-66
2022/12/23 15:43:54;;;;;;;6.07;2.43;;;12.60;1.00;;;;;;5039037;28;20437;-65
2022/12/23 15:46:22;;;;;;;2.37;1.73;;;12.40;1.00;;;;;;5051511;28;20189;-66
2022/12/23 15:48:48;;;;;;;3.63;1.60;;;12.40;1.00;;;;;;5039849;28;20488;-64
2022/12/23 15:51:22;;;;;;;9.00;2.10;;;12.30;1.00;;;;;;5040636;28;20470;-64
2022/12/23 15:53:47;;;;;;;4.60;1.57;;;12.30;1.00;;;;;;5035282;28;20511;-65
2022/12/23 15:56:24;;;;;;;2.10;1.40;;;12.30;1.00;;;;;;5051618;28;20460;-64
2022/12/23 15:58:51;;;;;;;5.70;1.87;;;12.40;1.00;;;;;;5055061;28;20192;-65
2022/12/23 16:01:20;;;;;;;3.63;1.70;;;12.30;1.00;;;;;;5044283;28;21141;-65
2022/12/23 16:04:07;;;;;;;4.43;1.70;;;12.30;1.00;;;;;;5048329;28;20580;-65
2022/12/23 16:06:34;;;;;;;4.40;2.10;;;12.20;1.00;;;;;;5039305;28;20440;-65
2022/12/23 16:09:25;;;;;;;2.63;1.60;;;12.30;1.00;;;;;;5054945;28;20450;-64
2022/12/23 16:12:02;;;;;;;3.10;1.50;;;12.30;1.00;;;;;;5030810;28;20476;-65
2022/12/23 16:14:53;;;;;;;2.40;1.47;;;12.30;1.00;;;;;;5033293;28;20466;-65
2022/12/23 16:17:37;;;;;;;2.10;1.43;;;12.30;1.00;;;;;;5045678;28;20471;-65
2022/12/23 16:20:38;;;;;;;3.53;2.70;;;12.30;1.00;;;;;;5042526;28;20453;-64
2022/12/23 16:23:04;;;;;;;4.83;1.40;;;12.30;1.00;;;;;;5041811;28;21000;-64
2022/12/23 16:25:31;;;;;;;1.60;1.43;;;12.40;1.00;;;;;;5044305;28;20444;-64
2022/12/23 16:27:57;;;;;;;4.63;1.30;;;12.40;1.00;;;;;;5038605;28;20711;-65
2022/12/23 16:30:33;;;;;;;2.43;1.60;;;12.30;1.00;;;;;;5054027;28;20441;-65
2022/12/23 16:33:05;;;;;;;1.67;1.30;;;12.30;1.00;;;;;;5062232;28;20167;-64
2022/12/23 16:35:35;;;;;;;2.60;2.13;;;12.20;1.00;;;;;;5060602;28;20518;-64
2022/12/23 16:38:23;;;;;;;3.80;2.10;;;12.30;1.00;;;;;;5052302;28;20435;-64
2022/12/23 16:40:54;;;;;;;3.60;1.70;;;12.40;1.00;;;;;;5051757;28;20444;-64
2022/12/23 16:43:23;;;;;;;4.63;2.00;;;12.30;1.00;;;;;;5041346;28;20425;-65
2022/12/23 16:45:54;;;;;;;10.03;2.53;;;12.30;1.00;;;;;;5050739;28;20690;-64
2022/12/23 16:48:31;;;;;;;14.93;2.67;;;12.40;1.00;;;;;;5049000;28;20459;-65
2022/12/23 16:50:57;;;;;;;2.10;1.70;;;12.30;1.00;;;;;;5047755;28;20425;-65
2022/12/23 16:53:23;;;;;;;4.33;1.60;;;12.40;1.00;;;;;;5039697;28;20426;-64
2022/12/23 16:55:48;;;;;;;3.47;1.77;;;12.40;1.00;;;;;;5015409;28;20910;-65
2022/12/23 16:58:14;;;;;;;4.23;1.90;;;12.30;1.00;;;;;;5038945;28;20175;-65
2022/12/23 17:00:41;;;;;;;2.40;1.90;;;12.30;1.00;;;;;;5048031;28;20198;-65
2022/12/23 17:03:09;;;;;;;2.90;2.00;;;12.30;1.00;;;;;;5018133;28;20188;-65
2022/12/23 17:05:34;;;;;;;3.40;1.67;;;12.30;1.00;;;;;;5040852;28;20788;-64
2022/12/23 17:08:00;;;;;;;2.17;1.97;;;12.30;1.00;;;;;;5018666;28;20526;-64
2022/12/23 17:10:26;;;;;;;2.87;1.80;;;12.30;1.00;;;;;;5030519;28;20211;-64
2022/12/23 17:12:52;;;;;;;2.50;2.17;;;12.30;1.00;;;;;;5029061;28;20207;-64
2022/12/23 17:15:19;;;;;;;3.13;1.80;;;12.40;1.00;;;;;;5040877;28;20278;-65
2022/12/23 17:17:46;;;;;;;3.20;1.80;;;12.40;1.00;;;;;;5028686;28;20183;-64
2022/12/23 17:20:12;;;;;;;4.70;2.10;;;12.30;1.00;;;;;;5039616;28;20499;-64
2022/12/23 17:22:38;;;;;;;1.40;1.30;;;12.30;1.00;;;;;;5023884;28;20433;-64
2022/12/23 17:25:04;;;;;;;1.90;1.70;;;12.30;1.00;;;;;;5051396;28;21127;-64
2022/12/23 17:27:30;;;;;;;2.23;1.60;;;12.20;1.00;;;;;;5050729;28;20820;-64
2022/12/23 17:29:55;;;;;;;3.13;1.70;;;12.30;1.00;;;;;;5039516;28;20472;-64
2022/12/23 17:32:21;;;;;;;1.90;1.77;;;12.30;1.00;;;;;;5034243;28;20229;-64
2022/12/23 17:34:47;;;;;;;5.53;1.77;;;12.30;1.00;;;;;;5036422;28;20681;-64
2022/12/23 17:37:14;;;;;;;1.80;1.70;;;12.30;1.00;;;;;;5026652;28;20570;-64
2022/12/23 17:39:41;;;;;;;4.80;2.00;;;12.30;1.00;;;;;;5044563;28;20182;-63
2022/12/23 17:42:16;;;;;;;3.57;2.17;;;12.30;1.00;;;;;;5020419;28;20430;-64
2022/12/23 17:44:43;;;;;;;1.93;1.73;;;12.30;1.00;;;;;;5023512;28;20767;-64
2022/12/23 17:47:21;;;;;;;2.67;1.70;;;12.20;1.00;;;;;;5035315;28;20524;-64
2022/12/23 17:49:47;;;;;;;3.00;1.87;;;12.30;1.00;;;;;;5034961;28;20460;-64
2022/12/23 17:52:19;;;;;;;5.53;2.10;;;12.50;1.00;;;;;;5032202;28;20446;-65
2022/12/23 17:54:46;;;;;;;4.90;3.00;;;12.40;1.00;;;;;;5030276;28;21351;-65
2022/12/23 17:57:25;;;;;;;2.20;2.00;;;12.30;1.00;;;;;;5035980;28;20461;-65
2022/12/23 17:59:53;;;;;;;3.80;3.07;;;12.40;1.00;;;;;;5036220;28;20456;-64
2022/12/23 18:02:21;;;;;;;8.43;1.90;;;12.30;1.00;;;;;;5033459;28;20504;-65
2022/12/23 18:04:48;;;;;;;2.03;1.83;;;12.40;1.00;;;;;;5045285;28;20840;-64
2022/12/23 18:07:14;;;;;;;4.80;1.93;;;12.40;1.00;;;;;;5031997;28;20440;-66
2022/12/23 18:09:39;;;;;;;3.90;1.90;;;12.40;1.00;;;;;;5036394;28;20441;-64
2022/12/23 18:12:05;;;;;;;1.57;1.40;;;12.40;1.00;;;;;;5029909;28;20176;-64
2022/12/23 18:14:31;;;;;;;3.60;1.60;;;12.40;1.00;;;;;;5025621;28;20680;-64
2022/12/23 18:17:00;;;;;;;3.33;1.70;;;12.40;1.00;;;;;;5035404;28;20521;-64
2022/12/23 18:19:25;;;;;;;2.37;1.73;;;12.50;1.00;;;;;;5039049;28;20582;-64
2022/12/23 18:21:51;;;;;;;1.77;1.60;;;12.60;1.00;;;;;;5035776;28;20511;-64
2022/12/23 18:24:17;;;;;;;5.43;1.80;;;12.60;1.00;;;;;;5028212;28;20199;-64
2022/12/23 18:26:43;;;;;;;3.30;1.70;;;12.60;1.00;;;;;;5033565;28;21057;-65
2022/12/23 18:29:09;;;;;;;2.80;1.83;;;12.60;1.00;;;;;;5032058;28;20203;-64
2022/12/23 18:31:37;;;;;;;1.77;1.50;;;12.60;1.00;;;;;;5030322;28;20865;-64
2022/12/23 18:34:03;;;;;;;3.40;2.20;;;12.50;1.00;;;;;;5023124;28;20254;-64
2022/12/23 18:36:32;;;;;;;3.10;1.90;;;12.50;1.00;;;;;;5031807;28;20429;-64
2022/12/23 18:38:58;;;;;;;2.37;1.90;;;12.50;1.00;;;;;;5024814;28;20164;-64
2022/12/23 18:41:25;;;;;;;3.40;2.83;;;12.60;1.00;;;;;;5029343;28;20934;-65
2022/12/23 18:43:52;;;;;;;5.23;2.17;;;12.60;1.00;;;;;;5031237;28;20426;-64
2022/12/23 18:46:20;;;;;;;9.60;2.17;;;12.50;1.00;;;;;;5035951;28;20956;-64
2022/12/23 18:48:47;;;;;;;2.50;2.00;;;12.50;1.00;;;;;;5028841;28;20430;-64
2022/12/23 18:51:18;;;;;;;2.77;1.60;;;12.50;1.00;;;;;;5024898;28;20480;-64
2022/12/23 18:53:45;;;;;;;2.50;1.80;;;12.40;1.00;;;;;;5021341;28;20426;-65
2022/12/23 18:56:15;;;;;;;7.57;5.00;;;12.40;1.00;;;;;;5032605;28;20972;-64
2022/12/23 18:58:41;;;;;;;2.60;1.77;;;12.50;1.00;;;;;;5027691;28;20563;-64
2022/12/23 19:01:14;;;;;;;8.10;4.57;;;12.50;1.00;;;;;;5041428;28;20577;-64
2022/12/23 19:03:40;;;;;;;2.10;1.90;;;12.50;1.00;;;;;;5034220;28;20423;-64
2022/12/23 19:06:07;;;;;;;2.03;1.77;;;12.50;1.00;;;;;;5040606;28;20442;-64
2022/12/23 19:08:35;;;;;;;2.60;1.83;;;12.60;1.00;;;;;;5032135;28;20430;-64
2022/12/23 19:11:01;;;;;;;2.07;1.80;;;12.70;1.00;;;;;;5044591;28;20440;-64
2022/12/23 19:13:27;;;;;;;2.03;1.83;;;12.70;1.00;;;;;;5027961;28;20426;-64
2022/12/23 19:15:52;;;;;;;2.87;1.70;;;12.60;1.00;;;;;;5028142;28;20206;-64
2022/12/23 19:18:20;;;;;;;2.30;1.83;;;12.60;1.00;;;;;;5021252;28;20435;-63
2022/12/23 19:20:47;;;;;;;3.13;1.37;;;12.50;1.00;;;;;;5018259;28;20219;-64
2022/12/23 19:23:13;;;;;;;1.67;1.50;;;12.60;1.00;;;;;;5027819;28;20483;-64
2022/12/23 19:25:40;;;;;;;2.00;1.80;;;12.60;1.00;;;;;;5030036;28;20455;-63
2022/12/23 19:28:07;;;;;;;4.13;1.80;;;12.50;1.00;;;;;;5030743;28;20535;-64
2022/12/23 19:30:33;;;;;;;9.30;2.13;;;12.40;1.00;;;;;;5033942;28;20486;-64
2022/12/23 19:32:59;;;;;;;3.00;1.87;;;12.50;1.00;;;;;;5023370;28;20777;-64
2022/12/23 19:35:24;;;;;;;5.70;2.97;;;12.40;1.00;;;;;;5009542;28;20467;-64
2022/12/23 19:37:50;;;;;;;3.73;2.23;;;12.50;1.00;;;;;;5009639;28;20251;-64
2022/12/23 19:40:16;;;;;;;6.93;3.00;;;12.40;1.00;;;;;;5015719;28;20204;-64
2022/12/23 19:42:41;;;;;;;12.67;2.40;;;12.50;1.00;;;;;;5017599;28;20218;-64
2022/12/23 19:45:08;;;;;;;3.50;2.20;;;12.40;1.00;;;;;;5029700;28;20172;-64
2022/12/23 19:47:35;;;;;;;5.00;1.90;;;12.40;1.00;;;;;;5018361;28;20183;-64
2022/12/23 19:50:00;;;;;;;3.30;2.50;;;12.40;1.00;;;;;;5027195;28;20434;-64
2022/12/23 19:52:26;;;;;;;4.10;2.40;;;12.40;1.00;;;;;;5019652;28;20488;-64
2022/12/23 19:54:52;;;;;;;5.23;3.10;;;12.40;1.00;;;;;;5028971;28;20200;-64
2022/12/23 19:57:18;;;;;;;6.73;4.30;;;12.50;1.00;;;;;;5034445;28;20178;-64
2022/12/23 19:59:44;;;;;;;6.60;3.43;;;12.50;1.00;;;;;;5032782;28;20174;-64
2022/12/23 20:02:14;;;;;;;9.03;5.00;;;12.50;1.00;;;;;;5030593;28;20442;-63
2022/12/23 20:04:40;;;;;;;7.40;2.20;;;12.50;1.00;;;;;;5034171;28;20180;-63
2022/12/23 20:07:06;;;;;;;6.23;2.80;;;12.50;1.00;;;;;;5026337;28;20523;-63
2022/12/23 20:09:31;;;;;;;2.67;2.13;;;12.40;1.00;;;;;;5019746;28;20222;-63
2022/12/23 20:11:57;;;;;;;3.60;1.73;;;12.50;1.00;;;;;;5029712;28;20195;-63
2022/12/23 20:14:23;;;;;;;6.90;2.87;;;12.50;1.00;;;;;;5040176;28;20277;-63
2022/12/23 20:16:49;;;;;;;3.50;2.33;;;12.50;1.00;;;;;;5044608;28;20369;-60
2022/12/23 20:19:15;;;;;;;2.57;1.63;;;12.50;1.00;;;;;;5026260;28;20224;-64
2022/12/23 20:21:40;;;;;;;2.10;1.70;;;12.40;1.00;;;;;;5022355;28;21096;-63
2022/12/23 20:24:07;;;;;;;6.20;1.60;;;12.40;1.00;;;;;;5035768;28;20447;-64
2022/12/23 20:26:33;;;;;;;1.93;1.50;;;12.30;1.00;;;;;;5045953;28;20183;-64
2022/12/23 20:28:58;;;;;;;8.20;2.40;;;12.40;1.00;;;;;;5039884;28;20440;-63
2022/12/23 20:31:30;;;;;;;2.13;1.57;;;12.40;1.00;;;;;;5027755;28;20464;-64
2022/12/23 20:33:56;;;;;;;10.70;1.87;;;12.40;1.00;;;;;;5030169;28;20175;-63
2022/12/23 20:36:25;;;;;;;4.43;1.60;;;12.40;1.00;;;;;;5043979;28;20953;-63
2022/12/23 20:38:52;;;;;;;9.63;1.70;;;12.40;1.00;;;;;;5017045;28;20497;-63
2022/12/23 20:41:21;;;;;;;2.40;1.40;;;12.40;1.00;;;;;;5016583;28;20454;-63
2022/12/23 20:43:47;;;;;;;2.17;1.30;;;12.40;1.00;;;;;;5028669;28;20491;-63
2022/12/23 20:46:14;;;;;;;3.83;2.07;;;12.30;1.00;;;;;;5031923;28;20855;-63
2022/12/23 20:48:41;;;;;;;2.57;2.13;;;12.30;1.00;;;;;;5040739;28;20482;-62
2022/12/23 20:51:11;;;;;;;3.23;1.37;;;12.30;1.00;;;;;;5036332;28;20805;-64
2022/12/23 20:53:37;;;;;;;4.13;1.90;;;12.20;1.00;;;;;;5032957;28;20525;-65
2022/12/23 20:56:06;;;;;;;1.60;1.33;;;12.20;1.00;;;;;;5028876;28;20473;-63
2022/12/23 21:01:17;;;;;;;2.57;1.70;;;12.20;1.00;;;;;;5030765;28;23045;-62
2022/12/23 21:03:42;;;;;;;4.40;2.50;;;12.20;1.00;;;;;;5019087;28;20514;-63
2022/12/23 21:06:08;;;;;;;6.17;1.67;;;12.20;1.00;;;;;;5019389;28;20186;-63
2022/12/23 21:08:35;;;;;;;2.03;1.30;;;12.20;1.00;;;;;;5028158;28;20175;-63
2022/12/23 21:11:02;;;;;;;1.80;1.33;;;12.10;1.00;;;;;;5033153;28;20942;-64
2022/12/23 21:13:27;;;;;;;2.90;1.50;;;12.00;1.00;;;;;;5034292;28;20928;-64
2022/12/23 21:15:59;;;;;;;1.30;1.20;;;12.10;1.00;;;;;;5024536;28;20461;-63
2022/12/23 21:18:25;;;;;;;2.50;1.53;;;12.10;1.00;;;;;;5025113;28;20923;-64
2022/12/23 21:20:50;;;;;;;2.33;1.10;;;12.20;1.00;;;;;;5013813;28;20548;-65
2022/12/23 21:23:16;;;;;;;1.60;1.00;;;12.30;1.00;;;;;;5030343;28;20187;-64
2022/12/23 21:25:42;;;;;;;2.30;0.97;;;12.30;1.00;;;;;;5035479;28;20650;-64
2022/12/23 21:28:08;;;;;;;4.87;1.00;;;12.40;1.00;;;;;;5027866;28;20600;-64
2022/12/23 21:30:34;;;;;;;1.70;1.03;;;12.40;1.00;;;;;;5018248;28;20226;-64
2022/12/23 21:33:02;;;;;;;1.43;1.10;;;12.40;1.00;;;;;;5026592;28;20451;-64
2022/12/23 21:35:27;;;;;;;1.70;0.93;;;12.40;1.00;;;;;;5025138;28;20222;-64
2022/12/23 21:37:53;;;;;;;1.70;1.20;;;12.50;1.00;;;;;;5031338;28;20437;-64
2022/12/23 21:40:19;;;;;;;2.37;1.13;;;12.40;1.00;;;;;;5027580;28;20208;-64
2022/12/23 21:42:44;;;;;;;2.33;1.17;;;12.40;1.00;;;;;;5025771;28;20183;-64
2022/12/23 21:45:10;;;;;;;1.73;1.00;;;12.40;1.00;;;;;;5030807;28;20194;-64
2022/12/23 21:47:36;;;;;;;5.07;1.50;;;12.40;1.00;;;;;;5026810;28;20191;-64
2022/12/23 21:50:02;;;;;;;1.93;1.30;;;12.30;1.00;;;;;;5011206;28;20209;-63
2022/12/23 21:52:27;;;;;;;6.33;1.53;;;12.40;1.00;;;;;;5020823;28;20554;-63
2022/12/23 21:54:53;;;;;;;3.40;1.33;;;12.40;1.00;;;;;;5031560;28;20222;-63
2022/12/23 21:57:19;;;;;;;1.43;0.90;;;12.30;1.00;;;;;;5034262;28;20175;-63
2022/12/23 21:59:44;;;;;;;11.70;5.57;;;12.30;1.00;;;;;;5019028;28;20180;-63
2022/12/23 22:02:19;;;;;;;6.63;4.50;;;12.60;1.00;;;;;;5024371;28;20176;-63
2022/12/23 22:04:45;;;;;;;11.90;7.93;;;12.90;1.00;;;;;;5024703;28;20248;-64
2022/12/23 22:07:11;;;;;;;11.13;5.43;;;13.10;1.00;;;;;;5028049;28;20854;-64
2022/12/23 22:09:36;;;;;;;2.10;1.50;;;13.40;1.00;;;;;;5033936;28;20270;-63
2022/12/23 22:12:03;;;;;;;6.43;3.50;;;13.30;99.90;;;;;;5043844;28;20182;-63
2022/12/23 22:14:29;;;;;;;1.40;1.00;;;13.50;1.00;;;;;;5050040;28;20206;-63
2022/12/23 22:16:55;;;;;;;1.93;1.40;;;13.40;99.90;;;;;;5047323;28;20440;-63
2022/12/23 22:19:20;;;;;;;2.00;1.20;;;12.80;1.00;;;;;;5030469;28;20232;-63
2022/12/23 22:21:46;;;;;;;2.97;1.63;;;12.50;1.00;;;;;;5041340;28;20565;-63
2022/12/23 22:24:12;;;;;;;2.10;1.47;;;12.30;1.00;;;;;;5050208;28;20301;-61
2022/12/23 22:26:39;;;;;;;2.80;1.60;;;12.20;1.00;;;;;;5051158;28;20175;-64
2022/12/23 22:29:05;;;;;;;3.80;1.10;;;12.20;1.00;;;;;;5050643;28;20209;-63
2022/12/23 22:31:43;;;;;;;1.57;1.30;;;12.20;1.00;;;;;;5050115;28;20432;-65
2022/12/23 22:34:13;;;;;;;5.77;1.87;;;12.20;1.00;;;;;;5026466;28;20430;-63
2022/12/23 22:36:39;;;;;;;3.50;1.60;;;12.20;1.00;;;;;;5021498;28;20434;-63
2022/12/23 22:39:05;;;;;;;3.53;1.60;;;12.20;1.00;;;;;;5019209;28;20434;-63
2022/12/23 22:41:31;;;;;;;8.47;2.20;;;12.20;1.00;;;;;;5035999;28;20213;-63
2022/12/23 22:43:58;;;;;;;3.50;1.63;;;12.20;1.00;;;;;;5040847;28;20175;-63
2022/12/23 22:46:23;;;;;;;2.87;2.03;;;12.20;1.00;;;;;;5025785;28;20430;-63
2022/12/23 22:48:50;;;;;;;4.07;1.50;;;12.20;1.00;;;;;;5023435;28;20799;-63
2022/12/23 22:51:21;;;;;;;3.30;1.93;;;12.30;1.00;;;;;;5020314;28;20211;-63
2022/12/23 22:53:48;;;;;;;5.30;2.00;;;12.20;1.00;;;;;;5018690;28;20449;-63
2022/12/23 22:56:16;;;;;;;2.73;1.77;;;12.20;1.00;;;;;;5042935;28;20475;-64
2022/12/23 22:58:42;;;;;;;4.77;1.60;;;12.20;1.00;;;;;;5016014;28;20501;-63
2022/12/23 23:01:20;;;;;;;3.40;1.37;;;12.30;99.90;;;;;;5021335;28;20846;-63
2022/12/23 23:03:46;;;;;;;4.30;1.63;;;12.30;99.90;;;;;;5038173;28;20265;-62
2022/12/23 23:06:13;;;;;;;3.43;1.23;;;12.30;99.90;;;;;;5027704;28;20404;-63
2022/12/23 23:08:41;;;;;;;3.57;1.33;;;12.30;1.00;;;;;;5038577;28;20623;-63
2022/12/23 23:11:06;;;;;;;5.40;1.50;;;12.20;1.00;;;;;;5022112;28;20470;-64
2022/12/23 23:13:33;;;;;;;3.07;1.50;;;12.30;1.00;;;;;;5042985;28;20417;-63
2022/12/23 23:16:00;;;;;;;7.30;1.70;;;12.30;1.00;;;;;;5049310;28;20281;-63
2022/12/23 23:18:26;;;;;;;4.07;1.50;;;12.30;1.00;;;;;;5030328;28;21126;-63
2022/12/23 23:20:52;;;;;;;3.43;1.20;;;12.30;4.50;;;;;;5029386;28;20501;-63
2022/12/23 23:23:18;;;;;;;3.73;1.37;;;12.40;99.90;;;;;;5030420;28;20406;-63
2022/12/23 23:25:44;;;;;;;6.47;1.80;;;12.40;99.90;;;;;;5030346;28;20767;-62
2022/12/23 23:28:10;;;;;;;2.27;1.30;;;12.40;1.00;;;;;;5028778;28;20183;-63
2022/12/23 23:30:36;;;;;;;3.03;1.50;;;12.40;1.00;;;;;;5009780;28;20477;-63
2022/12/23 23:33:02;;;;;;;4.60;1.43;;;12.40;99.90;;;;;;5010491;28;20183;-63
2022/12/23 23:35:28;;;;;;;9.03;2.37;;;12.30;51.30;;;;;;5020675;28;20465;-62
2022/12/23 23:37:54;;;;;;;4.40;1.30;;;12.30;99.90;;;;;;5010654;28;20230;-63
2022/12/23 23:40:19;;;;;;;8.40;1.73;;;12.30;18.80;;;;;;5019078;28;20198;-63
2022/12/23 23:42:45;;;;;;;16.17;3.00;;;12.30;99.90;;;;;;5019953;28;20585;-63
2022/12/23 23:45:11;;;;;;;6.70;1.70;;;12.20;99.90;;;;;;5027377;28;20230;-63
2022/12/23 23:47:37;;;;;;;11.87;3.83;;;12.20;99.90;;;;;;5031984;28;20282;-64
2022/12/23 23:50:06;;;;;;;4.20;1.40;;;12.10;99.90;;;;;;5034920;28;20229;-64
2022/12/23 23:52:31;;;;;;;5.97;1.33;;;12.10;99.90;;;;;;5020237;28;20188;-64
2022/12/23 23:54:57;;;;;;;4.00;1.40;;;12.10;99.90;;;;;;5021953;28;20935;-63
2022/12/23 23:57:25;;;;;;;8.43;1.93;;;12.00;99.90;;;;;;5036088;28;20197;-62
2022/12/23 23:59:51;;;;;;;4.33;1.20;;;12.00;99.90;;;;;;5036574;28;20562;-63
